Packwood, WA (98361)

8:47 AM PDT on June 02, 2015 (GMT -0700)
MesoWest | | Change Station
CLOSE
Current Station
Personal Weather Station
Location: Packwood, WA
Elevation: 4500 ft
Nearby Weather Stations

Elev 4500 ft 46.64 °N, 121.39 °W | Updated 1 hour ago

Mostly Cloudy
Mostly Cloudy
42 °F
Feels Like 42 °F
N
Wind Variable Wind from North
Gusts 0.0 mph

Today
High -- | Low -- °F
--% Chance of Precip.
Yesterday
High -- | Low -- °F
Precip. -- in
5:16 AM 8:53 PM
Full, 100% visible
Pressure 30.03 in
Visibility 10.0 miles
Clouds Mostly Cloudy 1200 ft
Mostly Cloudy 1900 ft
Overcast 6000 ft
Windchill 42 °F
Dew Point 39 °F
Humidity 90%
Rainfall in
Snow Depth Not available.
UV 1 out of 12
Pollen 6.50 out of 12
Air Quality Not available.
Flu Activity Sporadic
METAR KPLU 021535Z AUTO 25006KT 10SM BKN012 BKN019 OVC060 13/12 A3003 RMK AO2

More Conditions Fewer Conditions

Pressure 30.03 in
Visibility 10.0 miles
Clouds Mostly Cloudy 1200 ft
Mostly Cloudy 1900 ft
Overcast 6000 ft
Windchill 42 °F
Dew Point 39 °F
Humidity 90%
Rainfall in
Snow Depth Not available.
UV 1 out of 12
Pollen 6.50 out of 12
Air Quality Not available.
Flu Activity Sporadic
METAR KPLU 021535Z AUTO 25006KT 10SM BKN012 BKN019 OVC060 13/12 A3003 RMK AO2

More Conditions Fewer Conditions

10-Day Weather Forecast

Almanac

Astronomy

Jun. 02, 2015 Rise Set
Actual Time
Civil Twilight
Nautical Twilight
Astronomical Twilight
Moon
Length of Visible Light
Length of Day
Tomorrow will be .
, % of the Moon is Illuminated

Today's Extremes

State Highs State Lows

Community

WunderPhotos

Upload Photos

1,825,966 photos uploaded!

WunderBlogs® & News

Nearby

Air Quality

  Air Quality AQ Index Pollutant
Not available.

Snow Depth

Station Depth Elevation

Earthquake Activity

City Distance Mag. Time & Date
Minimum magnitude displayed is 2.5.

Coastal Water Temperatures

Place Temperature

Stations

Nearby Weather Stations

Station Location Temp. Windchill Dew Point Humidity Wind Precip. Elev Updated Type